sensor_id;sensor_type;location;lat;lon;timestamp;temperature;humidity
57566;DHT22;63999;43.882;-0.310;2023-08-20T00:02:08;28.00;69.40
57566;DHT22;63999;43.882;-0.310;2023-08-20T00:04:36;28.00;69.30
57566;DHT22;63999;43.882;-0.310;2023-08-20T00:07:02;28.00;69.40
57566;DHT22;63999;43.882;-0.310;2023-08-20T00:09:29;28.00;69.10
57566;DHT22;63999;43.882;-0.310;2023-08-20T00:11:56;27.90;69.10
57566;DHT22;63999;43.882;-0.310;2023-08-20T00:14:51;27.90;68.90
57566;DHT22;63999;43.882;-0.310;2023-08-20T00:17:18;27.80;68.80
57566;DHT22;63999;43.882;-0.310;2023-08-20T00:19:50;27.80;68.80
57566;DHT22;63999;43.882;-0.310;2023-08-20T00:22:21;27.80;69.00
57566;DHT22;63999;43.882;-0.310;2023-08-20T00:24:47;27.80;68.90
57566;DHT22;63999;43.882;-0.310;2023-08-20T00:27:16;27.80;69.00
57566;DHT22;63999;43.882;-0.310;2023-08-20T00:29:42;27.70;68.90
57566;DHT22;63999;43.882;-0.310;2023-08-20T00:32:10;27.70;68.90
57566;DHT22;63999;43.882;-0.310;2023-08-20T00:34:36;27.70;69.00
57566;DHT22;63999;43.882;-0.310;2023-08-20T00:37:02;27.70;68.90
57566;DHT22;63999;43.882;-0.310;2023-08-20T00:39:30;27.70;68.90
57566;DHT22;63999;43.882;-0.310;2023-08-20T00:41:59;27.60;68.70
57566;DHT22;63999;43.882;-0.310;2023-08-20T00:44:25;27.60;68.80
57566;DHT22;63999;43.882;-0.310;2023-08-20T00:46:51;27.50;68.60
57566;DHT22;63999;43.882;-0.310;2023-08-20T00:49:18;27.50;68.60
57566;DHT22;63999;43.882;-0.310;2023-08-20T00:51:50;27.50;68.70
57566;DHT22;63999;43.882;-0.310;2023-08-20T00:54:16;27.50;68.70
57566;DHT22;63999;43.882;-0.310;2023-08-20T00:56:49;27.50;68.60
57566;DHT22;63999;43.882;-0.310;2023-08-20T00:59:18;27.40;68.50
57566;DHT22;63999;43.882;-0.310;2023-08-20T01:01:45;27.40;68.60
57566;DHT22;63999;43.882;-0.310;2023-08-20T01:04:16;27.40;68.70
57566;DHT22;63999;43.882;-0.310;2023-08-20T01:07:09;27.40;68.90
57566;DHT22;63999;43.882;-0.310;2023-08-20T01:12:34;27.30;68.60
57566;DHT22;63999;43.882;-0.310;2023-08-20T01:15:01;27.30;68.50
57566;DHT22;63999;43.882;-0.310;2023-08-20T01:17:31;27.30;68.70
57566;DHT22;63999;43.882;-0.310;2023-08-20T01:19:57;27.30;68.60
57566;DHT22;63999;43.882;-0.310;2023-08-20T01:23:23;27.30;68.90
57566;DHT22;63999;43.882;-0.310;2023-08-20T01:29:10;27.30;69.00
57566;DHT22;63999;43.882;-0.310;2023-08-20T01:31:38;27.30;69.00
57566;DHT22;63999;43.882;-0.310;2023-08-20T01:34:04;27.30;68.80
57566;DHT22;63999;43.882;-0.310;2023-08-20T01:36:30;27.30;69.30
57566;DHT22;63999;43.882;-0.310;2023-08-20T01:38:56;27.30;68.50
57566;DHT22;63999;43.882;-0.310;2023-08-20T01:41:22;27.20;68.70
57566;DHT22;63999;43.882;-0.310;2023-08-20T01:43:48;27.20;69.00
57566;DHT22;63999;43.882;-0.310;2023-08-20T01:46:14;27.20;68.70
57566;DHT22;63999;43.882;-0.310;2023-08-20T01:48:43;27.10;68.70
57566;DHT22;63999;43.882;-0.310;2023-08-20T01:51:12;27.10;69.00
57566;DHT22;63999;43.882;-0.310;2023-08-20T01:53:38;27.10;68.80
57566;DHT22;63999;43.882;-0.310;2023-08-20T01:56:07;27.10;69.00
57566;DHT22;63999;43.882;-0.310;2023-08-20T01:58:36;27.10;68.90
57566;DHT22;63999;43.882;-0.310;2023-08-20T02:01:02;27.10;68.90
57566;DHT22;63999;43.882;-0.310;2023-08-20T02:03:28;27.10;68.90
57566;DHT22;63999;43.882;-0.310;2023-08-20T02:05:56;27.00;68.80
57566;DHT22;63999;43.882;-0.310;2023-08-20T02:08:27;27.00;68.80
57566;DHT22;63999;43.882;-0.310;2023-08-20T02:11:03;27.00;68.70
57566;DHT22;63999;43.882;-0.310;2023-08-20T02:13:30;26.90;68.90
57566;DHT22;63999;43.882;-0.310;2023-08-20T02:16:00;26.90;68.80
57566;DHT22;63999;43.882;-0.310;2023-08-20T02:18:26;26.90;68.80
57566;DHT22;63999;43.882;-0.310;2023-08-20T02:20:52;26.90;69.00
57566;DHT22;63999;43.882;-0.310;2023-08-20T02:23:21;26.90;69.00
57566;DHT22;63999;43.882;-0.310;2023-08-20T02:25:47;26.80;69.00
57566;DHT22;63999;43.882;-0.310;2023-08-20T02:28:16;26.80;69.00
57566;DHT22;63999;43.882;-0.310;2023-08-20T02:30:46;26.80;69.10
57566;DHT22;63999;43.882;-0.310;2023-08-20T02:33:12;26.80;69.00
57566;DHT22;63999;43.882;-0.310;2023-08-20T02:35:39;26.80;69.10
57566;DHT22;63999;43.882;-0.310;2023-08-20T02:38:08;26.80;69.10
57566;DHT22;63999;43.882;-0.310;2023-08-20T02:40:42;26.80;69.00
57566;DHT22;63999;43.882;-0.310;2023-08-20T02:43:08;26.70;69.00
57566;DHT22;63999;43.882;-0.310;2023-08-20T02:45:43;26.70;69.00
57566;DHT22;63999;43.882;-0.310;2023-08-20T02:48:09;26.70;69.00
57566;DHT22;63999;43.882;-0.310;2023-08-20T02:50:35;26.70;69.00
57566;DHT22;63999;43.882;-0.310;2023-08-20T02:53:04;26.60;69.10
57566;DHT22;63999;43.882;-0.310;2023-08-20T02:55:31;26.60;69.10
57566;DHT22;63999;43.882;-0.310;2023-08-20T02:58:01;26.60;69.10
57566;DHT22;63999;43.882;-0.310;2023-08-20T03:00:35;26.60;69.20
57566;DHT22;63999;43.882;-0.310;2023-08-20T03:03:05;26.60;69.20
57566;DHT22;63999;43.882;-0.310;2023-08-20T03:05:33;26.60;69.10
57566;DHT22;63999;43.882;-0.310;2023-08-20T03:08:00;26.60;69.30
57566;DHT22;63999;43.882;-0.310;2023-08-20T03:10:27;26.60;69.20
57566;DHT22;63999;43.882;-0.310;2023-08-20T03:13:01;26.60;69.20
57566;DHT22;63999;43.882;-0.310;2023-08-20T03:15:28;26.60;69.20
57566;DHT22;63999;43.882;-0.310;2023-08-20T03:17:56;26.50;69.20
57566;DHT22;63999;43.882;-0.310;2023-08-20T03:20:25;26.50;69.20
57566;DHT22;63999;43.882;-0.310;2023-08-20T03:23:02;26.50;69.10
57566;DHT22;63999;43.882;-0.310;2023-08-20T03:25:27;26.40;68.90
57566;DHT22;63999;43.882;-0.310;2023-08-20T03:27:55;26.40;69.00
57566;DHT22;63999;43.882;-0.310;2023-08-20T03:30:24;26.40;69.10
57566;DHT22;63999;43.882;-0.310;2023-08-20T03:32:50;26.30;69.00
57566;DHT22;63999;43.882;-0.310;2023-08-20T03:35:16;26.20;69.00
57566;DHT22;63999;43.882;-0.310;2023-08-20T03:37:42;26.20;69.00
57566;DHT22;63999;43.882;-0.310;2023-08-20T03:40:08;26.10;69.10
57566;DHT22;63999;43.882;-0.310;2023-08-20T03:42:37;26.10;69.20
57566;DHT22;63999;43.882;-0.310;2023-08-20T03:45:04;26.10;69.30
57566;DHT22;63999;43.882;-0.310;2023-08-20T03:47:29;26.10;69.30
57566;DHT22;63999;43.882;-0.310;2023-08-20T03:49:58;26.00;69.30
57566;DHT22;63999;43.882;-0.310;2023-08-20T03:52:26;26.00;69.30
57566;DHT22;63999;43.882;-0.310;2023-08-20T03:54:52;26.00;69.30
57566;DHT22;63999;43.882;-0.310;2023-08-20T03:57:18;26.00;69.50
57566;DHT22;63999;43.882;-0.310;2023-08-20T03:59:47;26.00;69.50
57566;DHT22;63999;43.882;-0.310;2023-08-20T04:02:17;26.00;69.50
57566;DHT22;63999;43.882;-0.310;2023-08-20T04:04:43;26.00;69.60
57566;DHT22;63999;43.882;-0.310;2023-08-20T04:07:08;26.00;69.60
57566;DHT22;63999;43.882;-0.310;2023-08-20T04:09:37;26.00;69.70
57566;DHT22;63999;43.882;-0.310;2023-08-20T04:12:10;26.00;69.70
57566;DHT22;63999;43.882;-0.310;2023-08-20T04:14:36;26.00;69.80
57566;DHT22;63999;43.882;-0.310;2023-08-20T04:17:04;25.90;69.80
57566;DHT22;63999;43.882;-0.310;2023-08-20T04:19:36;25.90;69.90
57566;DHT22;63999;43.882;-0.310;2023-08-20T04:22:01;25.90;70.00
57566;DHT22;63999;43.882;-0.310;2023-08-20T04:24:33;25.90;70.00
57566;DHT22;63999;43.882;-0.310;2023-08-20T04:27:01;25.80;70.20
57566;DHT22;63999;43.882;-0.310;2023-08-20T04:29:27;25.90;70.20
57566;DHT22;63999;43.882;-0.310;2023-08-20T04:31:53;25.90;70.20
57566;DHT22;63999;43.882;-0.310;2023-08-20T04:34:19;25.90;70.20
57566;DHT22;63999;43.882;-0.310;2023-08-20T04:36:45;25.90;70.30
57566;DHT22;63999;43.882;-0.310;2023-08-20T04:39:14;26.00;70.30
57566;DHT22;63999;43.882;-0.310;2023-08-20T04:41:40;25.90;70.40
57566;DHT22;63999;43.882;-0.310;2023-08-20T04:44:08;25.90;70.50
57566;DHT22;63999;43.882;-0.310;2023-08-20T04:46:34;25.90;70.50
57566;DHT22;63999;43.882;-0.310;2023-08-20T04:49:00;25.90;70.60
57566;DHT22;63999;43.882;-0.310;2023-08-20T04:51:26;25.80;70.70
57566;DHT22;63999;43.882;-0.310;2023-08-20T04:53:52;25.80;70.70
57566;DHT22;63999;43.882;-0.310;2023-08-20T04:56:23;25.80;70.80
57566;DHT22;63999;43.882;-0.310;2023-08-20T04:58:51;25.80;70.90
57566;DHT22;63999;43.882;-0.310;2023-08-20T05:01:17;25.80;70.90
57566;DHT22;63999;43.882;-0.310;2023-08-20T05:03:43;25.80;70.90
57566;DHT22;63999;43.882;-0.310;2023-08-20T05:06:12;25.80;70.90
57566;DHT22;63999;43.882;-0.310;2023-08-20T05:08:40;25.80;71.00
57566;DHT22;63999;43.882;-0.310;2023-08-20T05:11:09;25.80;71.20
57566;DHT22;63999;43.882;-0.310;2023-08-20T05:13:40;25.80;71.30
57566;DHT22;63999;43.882;-0.310;2023-08-20T05:16:08;25.70;71.50
57566;DHT22;63999;43.882;-0.310;2023-08-20T05:18:34;25.70;71.50
57566;DHT22;63999;43.882;-0.310;2023-08-20T05:21:03;25.70;71.60
57566;DHT22;63999;43.882;-0.310;2023-08-20T05:23:29;25.70;71.80
57566;DHT22;63999;43.882;-0.310;2023-08-20T05:25:55;25.60;71.90
57566;DHT22;63999;43.882;-0.310;2023-08-20T05:28:20;25.60;72.00
57566;DHT22;63999;43.882;-0.310;2023-08-20T05:30:58;25.60;72.00
57566;DHT22;63999;43.882;-0.310;2023-08-20T05:33:24;25.60;72.00
57566;DHT22;63999;43.882;-0.310;2023-08-20T05:35:50;25.60;72.20
57566;DHT22;63999;43.882;-0.310;2023-08-20T05:38:22;25.60;72.20
57566;DHT22;63999;43.882;-0.310;2023-08-20T05:40:48;25.60;72.30
57566;DHT22;63999;43.882;-0.310;2023-08-20T05:43:16;25.60;72.30
57566;DHT22;63999;43.882;-0.310;2023-08-20T05:45:45;25.60;72.50
57566;DHT22;63999;43.882;-0.310;2023-08-20T05:48:14;25.60;72.60
57566;DHT22;63999;43.882;-0.310;2023-08-20T05:50:43;25.60;72.60
57566;DHT22;63999;43.882;-0.310;2023-08-20T05:53:12;25.60;72.60
57566;DHT22;63999;43.882;-0.310;2023-08-20T05:55:48;25.60;72.70
57566;DHT22;63999;43.882;-0.310;2023-08-20T05:58:17;25.60;72.90
57566;DHT22;63999;43.882;-0.310;2023-08-20T06:00:44;25.60;72.90
57566;DHT22;63999;43.882;-0.310;2023-08-20T06:03:10;25.60;73.00
57566;DHT22;63999;43.882;-0.310;2023-08-20T06:05:35;25.60;73.20
57566;DHT22;63999;43.882;-0.310;2023-08-20T06:08:07;25.60;73.30
57566;DHT22;63999;43.882;-0.310;2023-08-20T06:10:36;25.60;73.40
57566;DHT22;63999;43.882;-0.310;2023-08-20T06:13:06;25.60;73.40
57566;DHT22;63999;43.882;-0.310;2023-08-20T06:15:32;25.60;73.50
57566;DHT22;63999;43.882;-0.310;2023-08-20T06:18:01;25.60;73.80
57566;DHT22;63999;43.882;-0.310;2023-08-20T06:20:27;25.60;73.90
57566;DHT22;63999;43.882;-0.310;2023-08-20T06:22:52;25.60;74.00
57566;DHT22;63999;43.882;-0.310;2023-08-20T06:25:24;25.60;73.80
57566;DHT22;63999;43.882;-0.310;2023-08-20T06:27:53;25.60;73.80
57566;DHT22;63999;43.882;-0.310;2023-08-20T06:30:19;25.60;74.30
57566;DHT22;63999;43.882;-0.310;2023-08-20T06:32:48;25.60;74.10
57566;DHT22;63999;43.882;-0.310;2023-08-20T06:35:14;25.60;74.50
57566;DHT22;63999;43.882;-0.310;2023-08-20T06:37:40;25.60;74.20
57566;DHT22;63999;43.882;-0.310;2023-08-20T06:40:09;25.60;74.20
57566;DHT22;63999;43.882;-0.310;2023-08-20T06:42:35;25.60;74.60
57566;DHT22;63999;43.882;-0.310;2023-08-20T06:45:01;25.50;74.80
57566;DHT22;63999;43.882;-0.310;2023-08-20T06:47:36;25.50;74.50
57566;DHT22;63999;43.882;-0.310;2023-08-20T06:50:04;25.50;74.40
57566;DHT22;63999;43.882;-0.310;2023-08-20T06:52:41;25.60;74.60
57566;DHT22;63999;43.882;-0.310;2023-08-20T06:55:07;25.50;74.70
57566;DHT22;63999;43.882;-0.310;2023-08-20T06:57:38;25.50;74.50
57566;DHT22;63999;43.882;-0.310;2023-08-20T07:00:07;25.50;74.90
57566;DHT22;63999;43.882;-0.310;2023-08-20T07:02:36;25.50;74.90
57566;DHT22;63999;43.882;-0.310;2023-08-20T07:05:01;25.50;74.90
57566;DHT22;63999;43.882;-0.310;2023-08-20T07:07:33;25.50;74.90
57566;DHT22;63999;43.882;-0.310;2023-08-20T07:10:01;25.50;74.80
57566;DHT22;63999;43.882;-0.310;2023-08-20T07:12:32;25.60;75.10
57566;DHT22;63999;43.882;-0.310;2023-08-20T07:15:00;25.60;75.40
57566;DHT22;63999;43.882;-0.310;2023-08-20T07:17:29;25.60;74.70
57566;DHT22;63999;43.882;-0.310;2023-08-20T07:19:58;25.60;74.60
57566;DHT22;63999;43.882;-0.310;2023-08-20T07:22:23;25.60;74.70
57566;DHT22;63999;43.882;-0.310;2023-08-20T07:24:52;25.60;75.00
57566;DHT22;63999;43.882;-0.310;2023-08-20T07:27:32;25.60;74.60
57566;DHT22;63999;43.882;-0.310;2023-08-20T07:30:02;25.60;74.70
57566;DHT22;63999;43.882;-0.310;2023-08-20T07:32:32;25.60;74.70
57566;DHT22;63999;43.882;-0.310;2023-08-20T07:35:03;25.70;75.20
57566;DHT22;63999;43.882;-0.310;2023-08-20T07:37:32;25.80;75.00
57566;DHT22;63999;43.882;-0.310;2023-08-20T07:40:01;25.80;74.90
57566;DHT22;63999;43.882;-0.310;2023-08-20T07:42:30;25.80;74.30
57566;DHT22;63999;43.882;-0.310;2023-08-20T07:44:56;25.80;74.90
57566;DHT22;63999;43.882;-0.310;2023-08-20T07:47:22;25.80;75.50
57566;DHT22;63999;43.882;-0.310;2023-08-20T07:49:48;25.80;75.20
57566;DHT22;63999;43.882;-0.310;2023-08-20T07:52:19;25.80;74.90
57566;DHT22;63999;43.882;-0.310;2023-08-20T07:54:50;25.80;74.80
57566;DHT22;63999;43.882;-0.310;2023-08-20T07:58:54;26.00;75.20
57566;DHT22;63999;43.882;-0.310;2023-08-20T08:01:23;25.80;75.50
57566;DHT22;63999;43.882;-0.310;2023-08-20T08:03:49;25.80;74.90
57566;DHT22;63999;43.882;-0.310;2023-08-20T08:06:18;25.80;74.80
57566;DHT22;63999;43.882;-0.310;2023-08-20T08:08:44;25.90;75.30
57566;DHT22;63999;43.882;-0.310;2023-08-20T08:11:13;25.90;75.00
57566;DHT22;63999;43.882;-0.310;2023-08-20T08:13:41;26.00;75.30
57566;DHT22;63999;43.882;-0.310;2023-08-20T08:16:07;26.00;75.50
57566;DHT22;63999;43.882;-0.310;2023-08-20T08:18:39;26.00;75.20
57566;DHT22;63999;43.882;-0.310;2023-08-20T08:21:07;26.00;75.00
57566;DHT22;63999;43.882;-0.310;2023-08-20T08:23:38;26.00;74.50
57566;DHT22;63999;43.882;-0.310;2023-08-20T08:26:04;26.00;75.00
57566;DHT22;63999;43.882;-0.310;2023-08-20T08:28:30;26.00;75.50
57566;DHT22;63999;43.882;-0.310;2023-08-20T08:30:59;26.00;74.30
57566;DHT22;63999;43.882;-0.310;2023-08-20T08:33:28;26.00;74.70
57566;DHT22;63999;43.882;-0.310;2023-08-20T08:35:57;26.10;75.40
57566;DHT22;63999;43.882;-0.310;2023-08-20T08:38:25;26.20;74.70
57566;DHT22;63999;43.882;-0.310;2023-08-20T08:40:55;26.40;76.20
57566;DHT22;63999;43.882;-0.310;2023-08-20T08:43:22;26.50;74.90
57566;DHT22;63999;43.882;-0.310;2023-08-20T08:45:48;26.50;75.10
57566;DHT22;63999;43.882;-0.310;2023-08-20T08:48:18;26.60;75.20
57566;DHT22;63999;43.882;-0.310;2023-08-20T08:50:49;26.60;75.10
57566;DHT22;63999;43.882;-0.310;2023-08-20T08:53:15;26.60;75.00
57566;DHT22;63999;43.882;-0.310;2023-08-20T08:55:44;26.70;74.70
57566;DHT22;63999;43.882;-0.310;2023-08-20T08:58:10;26.70;76.40
57566;DHT22;63999;43.882;-0.310;2023-08-20T09:00:35;26.80;75.10
57566;DHT22;63999;43.882;-0.310;2023-08-20T09:03:08;26.90;74.60
57566;DHT22;63999;43.882;-0.310;2023-08-20T09:06:01;26.90;75.40
57566;DHT22;63999;43.882;-0.310;2023-08-20T09:08:32;27.00;74.70
57566;DHT22;63999;43.882;-0.310;2023-08-20T09:11:03;26.90;74.50
57566;DHT22;63999;43.882;-0.310;2023-08-20T09:13:37;26.90;75.00
57566;DHT22;63999;43.882;-0.310;2023-08-20T09:16:10;26.80;75.40
57566;DHT22;63999;43.882;-0.310;2023-08-20T09:18:41;26.90;75.60
57566;DHT22;63999;43.882;-0.310;2023-08-20T09:21:10;26.90;75.40
57566;DHT22;63999;43.882;-0.310;2023-08-20T09:23:39;26.80;75.30
57566;DHT22;63999;43.882;-0.310;2023-08-20T09:26:11;26.70;75.30
57566;DHT22;63999;43.882;-0.310;2023-08-20T09:28:46;26.70;75.50
57566;DHT22;63999;43.882;-0.310;2023-08-20T09:31:17;26.70;76.80
57566;DHT22;63999;43.882;-0.310;2023-08-20T09:33:50;26.80;75.50
57566;DHT22;63999;43.882;-0.310;2023-08-20T09:36:28;26.80;75.60
57566;DHT22;63999;43.882;-0.310;2023-08-20T09:38:57;26.80;75.40
57566;DHT22;63999;43.882;-0.310;2023-08-20T09:41:23;26.80;75.40
57566;DHT22;63999;43.882;-0.310;2023-08-20T09:43:56;26.80;76.60
57566;DHT22;63999;43.882;-0.310;2023-08-20T09:46:24;27.00;77.20
57566;DHT22;63999;43.882;-0.310;2023-08-20T09:48:56;27.10;75.50
57566;DHT22;63999;43.882;-0.310;2023-08-20T09:51:34;27.00;75.40
57566;DHT22;63999;43.882;-0.310;2023-08-20T09:54:28;27.00;75.50
57566;DHT22;63999;43.882;-0.310;2023-08-20T09:57:01;27.00;75.40
57566;DHT22;63999;43.882;-0.310;2023-08-20T09:59:28;26.90;75.40
57566;DHT22;63999;43.882;-0.310;2023-08-20T10:01:56;26.90;75.60
57566;DHT22;63999;43.882;-0.310;2023-08-20T10:04:28;26.90;75.90
57566;DHT22;63999;43.882;-0.310;2023-08-20T10:06:58;27.00;75.70
57566;DHT22;63999;43.882;-0.310;2023-08-20T10:09:27;27.10;75.70
57566;DHT22;63999;43.882;-0.310;2023-08-20T10:11:56;27.00;75.70
57566;DHT22;63999;43.882;-0.310;2023-08-20T10:14:24;27.00;76.00
57566;DHT22;63999;43.882;-0.310;2023-08-20T10:16:52;27.00;75.90
57566;DHT22;63999;43.882;-0.310;2023-08-20T10:19:19;27.20;77.20
57566;DHT22;63999;43.882;-0.310;2023-08-20T10:21:46;27.20;75.70
57566;DHT22;63999;43.882;-0.310;2023-08-20T10:24:17;27.20;76.50
57566;DHT22;63999;43.882;-0.310;2023-08-20T10:26:47;27.20;76.30
57566;DHT22;63999;43.882;-0.310;2023-08-20T10:29:39;27.20;75.90
57566;DHT22;63999;43.882;-0.310;2023-08-20T10:32:13;27.30;75.80
57566;DHT22;63999;43.882;-0.310;2023-08-20T10:34:50;27.30;75.90
57566;DHT22;63999;43.882;-0.310;2023-08-20T10:37:28;27.20;75.90
57566;DHT22;63999;43.882;-0.310;2023-08-20T10:39:55;27.20;75.70
57566;DHT22;63999;43.882;-0.310;2023-08-20T10:42:22;27.20;76.00
57566;DHT22;63999;43.882;-0.310;2023-08-20T10:45:01;27.20;75.80
57566;DHT22;63999;43.882;-0.310;2023-08-20T10:47:36;27.10;76.20
57566;DHT22;63999;43.882;-0.310;2023-08-20T10:50:08;27.00;76.00
57566;DHT22;63999;43.882;-0.310;2023-08-20T10:52:49;27.00;76.50
57566;DHT22;63999;43.882;-0.310;2023-08-20T10:55:15;27.00;76.60
57566;DHT22;63999;43.882;-0.310;2023-08-20T10:57:46;27.10;76.50
57566;DHT22;63999;43.882;-0.310;2023-08-20T11:00:19;27.10;76.60
57566;DHT22;63999;43.882;-0.310;2023-08-20T11:02:49;27.20;76.80
57566;DHT22;63999;43.882;-0.310;2023-08-20T11:05:17;27.20;76.50
57566;DHT22;63999;43.882;-0.310;2023-08-20T11:07:45;27.30;77.00
57566;DHT22;63999;43.882;-0.310;2023-08-20T11:10:14;27.50;76.50
57566;DHT22;63999;43.882;-0.310;2023-08-20T11:12:43;27.50;76.50
57566;DHT22;63999;43.882;-0.310;2023-08-20T11:15:13;27.50;76.20
57566;DHT22;63999;43.882;-0.310;2023-08-20T11:17:48;27.40;76.00
57566;DHT22;63999;43.882;-0.310;2023-08-20T11:20:17;27.40;76.10
57566;DHT22;63999;43.882;-0.310;2023-08-20T11:22:45;27.40;77.80
57566;DHT22;63999;43.882;-0.310;2023-08-20T11:25:13;27.50;76.10
57566;DHT22;63999;43.882;-0.310;2023-08-20T11:27:45;27.40;76.60
57566;DHT22;63999;43.882;-0.310;2023-08-20T11:30:11;27.50;77.00
57566;DHT22;63999;43.882;-0.310;2023-08-20T11:32:44;27.50;76.50
57566;DHT22;63999;43.882;-0.310;2023-08-20T11:35:14;27.50;76.40
57566;DHT22;63999;43.882;-0.310;2023-08-20T11:37:40;27.60;77.10
57566;DHT22;63999;43.882;-0.310;2023-08-20T11:40:09;27.60;76.20
57566;DHT22;63999;43.882;-0.310;2023-08-20T11:42:38;27.60;77.20
57566;DHT22;63999;43.882;-0.310;2023-08-20T11:45:12;27.60;76.00
57566;DHT22;63999;43.882;-0.310;2023-08-20T11:47:45;27.50;77.40
57566;DHT22;63999;43.882;-0.310;2023-08-20T11:50:14;27.50;75.90
57566;DHT22;63999;43.882;-0.310;2023-08-20T11:52:46;27.50;77.30
57566;DHT22;63999;43.882;-0.310;2023-08-20T11:55:15;27.50;77.10
57566;DHT22;63999;43.882;-0.310;2023-08-20T11:57:51;27.60;76.70
57566;DHT22;63999;43.882;-0.310;2023-08-20T12:00:25;27.60;76.80
57566;DHT22;63999;43.882;-0.310;2023-08-20T12:03:01;27.50;77.00
57566;DHT22;63999;43.882;-0.310;2023-08-20T12:05:30;27.50;76.70
57566;DHT22;63999;43.882;-0.310;2023-08-20T12:08:04;27.50;76.60
57566;DHT22;63999;43.882;-0.310;2023-08-20T12:10:42;27.50;77.00
57566;DHT22;63999;43.882;-0.310;2023-08-20T12:13:08;27.40;76.60
57566;DHT22;63999;43.882;-0.310;2023-08-20T12:15:34;27.50;77.90
57566;DHT22;63999;43.882;-0.310;2023-08-20T12:18:04;27.70;78.60
57566;DHT22;63999;43.882;-0.310;2023-08-20T12:20:33;27.80;77.00
57566;DHT22;63999;43.882;-0.310;2023-08-20T12:23:06;27.80;76.90
57566;DHT22;63999;43.882;-0.310;2023-08-20T12:25:35;27.70;76.20
57566;DHT22;63999;43.882;-0.310;2023-08-20T12:28:04;27.50;77.20
57566;DHT22;63999;43.882;-0.310;2023-08-20T12:30:36;27.50;78.40
57566;DHT22;63999;43.882;-0.310;2023-08-20T12:33:06;27.70;79.00
57566;DHT22;63999;43.882;-0.310;2023-08-20T12:35:32;27.90;79.00
57566;DHT22;63999;43.882;-0.310;2023-08-20T12:38:01;27.90;77.00
57566;DHT22;63999;43.882;-0.310;2023-08-20T12:40:31;27.80;76.90
57566;DHT22;63999;43.882;-0.310;2023-08-20T12:42:59;27.80;77.00
57566;DHT22;63999;43.882;-0.310;2023-08-20T12:45:25;27.70;77.20
57566;DHT22;63999;43.882;-0.310;2023-08-20T12:47:57;27.70;77.30
57566;DHT22;63999;43.882;-0.310;2023-08-20T12:50:26;27.70;77.30
57566;DHT22;63999;43.882;-0.310;2023-08-20T12:52:58;27.70;77.90
57566;DHT22;63999;43.882;-0.310;2023-08-20T12:55:23;27.80;77.60
57566;DHT22;63999;43.882;-0.310;2023-08-20T12:57:57;27.80;77.30
57566;DHT22;63999;43.882;-0.310;2023-08-20T13:00:27;27.70;77.50
57566;DHT22;63999;43.882;-0.310;2023-08-20T13:02:54;27.80;77.90
57566;DHT22;63999;43.882;-0.310;2023-08-20T13:05:25;27.60;77.50
57566;DHT22;63999;43.882;-0.310;2023-08-20T13:07:54;27.50;77.60
57566;DHT22;63999;43.882;-0.310;2023-08-20T13:10:23;27.50;77.40
57566;DHT22;63999;43.882;-0.310;2023-08-20T13:12:55;27.70;80.10
57566;DHT22;63999;43.882;-0.310;2023-08-20T13:15:31;28.10;78.50
57566;DHT22;63999;43.882;-0.310;2023-08-20T13:17:59;28.10;77.60
57566;DHT22;63999;43.882;-0.310;2023-08-20T13:20:31;28.10;78.30
57566;DHT22;63999;43.882;-0.310;2023-08-20T13:23:05;28.10;77.00
57566;DHT22;63999;43.882;-0.310;2023-08-20T13:25:37;28.00;77.70
57566;DHT22;63999;43.882;-0.310;2023-08-20T13:28:03;28.10;77.70
57566;DHT22;63999;43.882;-0.310;2023-08-20T13:30:29;28.20;79.10
57566;DHT22;63999;43.882;-0.310;2023-08-20T13:32:55;28.30;77.80
57566;DHT22;63999;43.882;-0.310;2023-08-20T13:35:25;28.40;76.50
57566;DHT22;63999;43.882;-0.310;2023-08-20T13:37:53;28.30;76.60
57566;DHT22;63999;43.882;-0.310;2023-08-20T13:40:24;28.10;76.90
57566;DHT22;63999;43.882;-0.310;2023-08-20T13:43:02;28.10;77.60
57566;DHT22;63999;43.882;-0.310;2023-08-20T13:46:05;28.10;76.80
57566;DHT22;63999;43.882;-0.310;2023-08-20T13:48:46;28.30;78.10
57566;DHT22;63999;43.882;-0.310;2023-08-20T13:51:22;28.30;77.50
57566;DHT22;63999;43.882;-0.310;2023-08-20T13:54:13;28.20;77.30
57566;DHT22;63999;43.882;-0.310;2023-08-20T13:56:42;28.10;76.70
57566;DHT22;63999;43.882;-0.310;2023-08-20T13:59:22;28.00;77.50
57566;DHT22;63999;43.882;-0.310;2023-08-20T14:01:55;28.00;77.50
57566;DHT22;63999;43.882;-0.310;2023-08-20T14:04:25;28.10;78.20
57566;DHT22;63999;43.882;-0.310;2023-08-20T14:06:58;28.10;78.50
57566;DHT22;63999;43.882;-0.310;2023-08-20T14:09:44;28.30;79.00
57566;DHT22;63999;43.882;-0.310;2023-08-20T14:12:14;28.50;77.60
57566;DHT22;63999;43.882;-0.310;2023-08-20T14:14:57;28.50;79.30
57566;DHT22;63999;43.882;-0.310;2023-08-20T14:17:27;28.50;77.00
57566;DHT22;63999;43.882;-0.310;2023-08-20T14:19:56;28.50;77.80
57566;DHT22;63999;43.882;-0.310;2023-08-20T14:22:47;28.50;79.20
57566;DHT22;63999;43.882;-0.310;2023-08-20T14:25:21;28.70;77.40
57566;DHT22;63999;43.882;-0.310;2023-08-20T14:27:53;28.80;77.20
57566;DHT22;63999;43.882;-0.310;2023-08-20T14:30:38;29.00;78.00
57566;DHT22;63999;43.882;-0.310;2023-08-20T14:33:07;29.00;78.70
57566;DHT22;63999;43.882;-0.310;2023-08-20T14:35:56;29.10;77.30
57566;DHT22;63999;43.882;-0.310;2023-08-20T14:38:52;29.00;78.10
57566;DHT22;63999;43.882;-0.310;2023-08-20T14:41:42;28.90;78.10
57566;DHT22;63999;43.882;-0.310;2023-08-20T14:44:16;29.10;78.50
57566;DHT22;63999;43.882;-0.310;2023-08-20T14:49:46;29.20;76.00
57566;DHT22;63999;43.882;-0.310;2023-08-20T14:52:15;29.30;78.60
57566;DHT22;63999;43.882;-0.310;2023-08-20T14:54:44;29.50;78.20
57566;DHT22;63999;43.882;-0.310;2023-08-20T14:57:17;29.50;77.50
57566;DHT22;63999;43.882;-0.310;2023-08-20T14:59:46;29.40;76.30
57566;DHT22;63999;43.882;-0.310;2023-08-20T15:02:15;29.40;77.90
57566;DHT22;63999;43.882;-0.310;2023-08-20T15:04:41;29.50;77.90
57566;DHT22;63999;43.882;-0.310;2023-08-20T15:07:12;29.50;77.50
57566;DHT22;63999;43.882;-0.310;2023-08-20T15:09:37;29.50;77.60
57566;DHT22;63999;43.882;-0.310;2023-08-20T15:12:10;29.50;76.20
57566;DHT22;63999;43.882;-0.310;2023-08-20T15:14:36;29.50;77.20
57566;DHT22;63999;43.882;-0.310;2023-08-20T15:17:05;29.50;76.80
57566;DHT22;63999;43.882;-0.310;2023-08-20T15:19:34;29.40;76.20
57566;DHT22;63999;43.882;-0.310;2023-08-20T15:22:02;29.40;78.00
57566;DHT22;63999;43.882;-0.310;2023-08-20T15:24:28;29.60;77.50
57566;DHT22;63999;43.882;-0.310;2023-08-20T15:26:58;29.50;78.30
57566;DHT22;63999;43.882;-0.310;2023-08-20T15:29:26;29.70;77.10
57566;DHT22;63999;43.882;-0.310;2023-08-20T15:31:58;29.70;76.60
57566;DHT22;63999;43.882;-0.310;2023-08-20T15:34:24;29.60;76.80
57566;DHT22;63999;43.882;-0.310;2023-08-20T15:36:50;29.50;75.90
57566;DHT22;63999;43.882;-0.310;2023-08-20T15:39:16;29.50;76.20
57566;DHT22;63999;43.882;-0.310;2023-08-20T15:41:52;29.40;78.00
57566;DHT22;63999;43.882;-0.310;2023-08-20T15:44:21;29.60;77.10